Time;durP1;ratioP1;P1;durP2;ratioP2;P2;SDS_P1;SDS_P2;PMS_P1;PMS_P2;Temp;Humidity;BMP_temperature;BMP_pressure;BME280_temperature;BME280_humidity;BME280_pressure;Samples;Min_cycle;Max_cycle;Signal;HPM_P1;HPM_P2
2023/05/11 00:01:16;;;;;;;2.50;1.52;;;;;;;18.93;36.30;99628.63;4499116;31;33406;-66
2023/05/11 00:03:43;;;;;;;1.65;1.08;;;;;;;18.94;36.36;99628.47;4491965;31;33769;-65
2023/05/11 00:06:11;;;;;;;4.50;1.90;;;;;;;18.81;36.77;99625.38;4489927;31;34157;-67
2023/05/11 00:08:39;;;;;;;3.67;1.45;;;;;;;18.80;36.51;99618.28;4482893;31;35056;-66
2023/05/11 00:11:07;;;;;;;4.75;1.85;;;;;;;18.75;36.61;99624.22;4498334;31;33264;-65
2023/05/11 00:13:35;;;;;;;5.80;1.65;;;;;;;18.80;36.47;99618.28;4493326;31;33439;-66
2023/05/11 00:16:03;;;;;;;1.55;1.27;;;;;;;18.82;36.69;99616.25;4500449;31;33624;-65
2023/05/11 00:18:31;;;;;;;3.00;1.50;;;;;;;18.87;36.62;99613.03;4487105;31;33504;-66
2023/05/11 00:20:58;;;;;;;3.65;1.75;;;;;;;18.79;36.86;99617.44;4498985;31;32049;-66
2023/05/11 00:23:26;;;;;;;5.18;2.12;;;;;;;18.68;37.27;99617.75;4483621;31;35620;-65
2023/05/11 00:25:54;;;;;;;2.30;1.25;;;;;;;18.79;36.90;99619.31;4497823;31;34833;-66
2023/05/11 00:28:22;;;;;;;3.50;1.60;;;;;;;18.72;37.09;99619.16;4496179;31;34795;-64
2023/05/11 00:30:49;;;;;;;2.67;1.52;;;;;;;18.76;36.91;99625.06;4497984;31;33593;-64
2023/05/11 00:33:17;;;;;;;2.58;1.50;;;;;;;18.65;37.22;99617.22;4488966;31;34325;-65
2023/05/11 00:35:45;;;;;;;2.80;1.50;;;;;;;18.70;37.06;99615.72;4495328;31;32777;-65
2023/05/11 00:38:12;;;;;;;1.87;1.30;;;;;;;18.64;37.21;99621.81;4487106;31;34986;-65
2023/05/11 00:40:40;;;;;;;2.95;1.62;;;;;;;18.49;37.56;99615.38;4500276;31;31892;-63
2023/05/11 00:43:07;;;;;;;3.33;2.00;;;;;;;18.57;37.33;99612.69;4494809;31;33235;-64
2023/05/11 00:45:35;;;;;;;1.27;1.10;;;;;;;18.52;37.61;99615.03;4493573;31;33944;-65
2023/05/11 00:48:03;;;;;;;4.85;2.17;;;;;;;18.54;37.76;99616.56;4487723;31;34609;-64
2023/05/11 00:50:30;;;;;;;2.35;1.48;;;;;;;18.49;37.95;99609.94;4496422;31;34835;-65
2023/05/11 00:52:58;;;;;;;2.87;1.48;;;;;;;18.50;37.76;99614.38;4493926;31;33726;-64
2023/05/11 00:55:26;;;;;;;2.58;1.42;;;;;;;18.50;37.81;99607.09;4494842;31;35331;-65
2023/05/11 00:57:54;;;;;;;3.42;1.65;;;;;;;18.46;38.02;99610.28;4481655;31;33034;-65
2023/05/11 01:00:21;;;;;;;2.75;1.58;;;;;;;18.45;38.15;99609.44;4489732;31;34568;-66
2023/05/11 01:02:50;;;;;;;3.00;1.27;;;;;;;18.44;37.87;99609.63;4491383;31;33705;-66
2023/05/11 01:05:18;;;;;;;2.17;0.95;;;;;;;18.37;38.32;99612.16;4492915;31;34078;-64
2023/05/11 01:08:07;;;;;;;3.05;1.70;;;;;;;18.45;38.07;99603.19;4484430;31;33638;-64
2023/05/11 01:10:44;;;;;;;5.60;2.35;;;;;;;18.43;38.20;99600.66;4480650;32;33527;-64
2023/05/11 01:13:39;;;;;;;2.67;1.77;;;;;;;18.45;38.07;99603.19;4479374;31;33590;-65
2023/05/11 01:16:11;;;;;;;;;;;;;;;18.41;38.45;99605.37;4484751;31;35146;-65
2023/05/11 01:18:48;;;;;;;4.15;1.73;;;;;;;18.47;38.21;99601.16;4487077;31;34161;-65
2023/05/11 01:21:16;;;;;;;6.12;1.90;;;;;;;18.44;38.37;99604.22;4496360;31;34728;-64
2023/05/11 01:24:11;;;;;;;2.70;1.52;;;;;;;18.29;38.43;99604.84;4498624;31;33581;-66
2023/05/11 01:27:02;;;;;;;2.60;1.30;;;;;;;18.43;38.24;99600.66;4494488;31;33721;-63
2023/05/11 01:29:40;;;;;;;3.40;1.27;;;;;;;18.36;38.27;99602.31;4496592;31;34668;-62
2023/05/11 01:32:25;;;;;;;2.00;1.33;;;;;;;18.27;38.39;99601.50;4484393;31;33245;-63
2023/05/11 01:35:20;;;;;;;3.75;1.80;;;;;;;18.36;38.40;99600.47;4490584;31;33720;-63
2023/05/11 01:37:56;;;;;;;2.50;1.50;;;;;;;18.34;38.70;99601.66;4486062;31;34089;-63
2023/05/11 01:40:27;;;;;;;2.33;1.35;;;;;;;18.31;38.90;99596.56;4483619;31;34945;-65
2023/05/11 01:43:01;;;;;;;1.98;1.12;;;;;;;18.39;38.65;99593.84;4491190;31;33233;-65
2023/05/11 01:45:30;;;;;;;6.53;1.85;;;;;;;18.36;38.65;99595.06;4484466;31;34621;-65
2023/05/11 01:48:01;;;;;;;7.05;1.75;;;;;;;18.42;38.56;99604.34;4490660;31;33686;-65
2023/05/11 01:50:30;;;;;;;3.15;1.92;;;;;;;18.27;38.77;99604.19;4495118;31;32950;-63
2023/05/11 01:53:00;;;;;;;5.35;1.98;;;;;;;18.43;38.89;99599.81;4488102;31;33322;-64
2023/05/11 01:55:31;;;;;;;4.10;2.45;;;;;;;18.22;39.21;99595.72;4499086;31;33922;-64
2023/05/11 01:57:59;;;;;;;3.28;1.50;;;;;;;18.32;39.07;99603.69;4485260;31;33971;-65
2023/05/11 02:00:27;;;;;;;2.30;1.12;;;;;;;18.32;39.07;99599.09;4490005;31;33858;-65
2023/05/11 02:02:55;;;;;;;4.93;2.50;;;;;;;18.39;39.00;99600.16;4494742;31;34507;-63
2023/05/11 02:05:23;;;;;;;2.30;1.45;;;;;;;18.35;38.92;99592.50;4484561;31;34000;-67
2023/05/11 02:07:53;;;;;;;6.68;1.37;;;;;;;18.29;39.26;99594.00;4482170;31;32756;-66
2023/05/11 02:10:24;;;;;;;1.37;1.20;;;;;;;18.43;39.10;99588.97;4499412;31;34066;-64
2023/05/11 02:12:53;;;;;;;2.10;1.12;;;;;;;18.40;39.19;99584.72;4496858;31;34725;-65
2023/05/11 02:15:22;;;;;;;2.10;1.37;;;;;;;18.39;39.26;99586.59;4496212;31;33802;-64
2023/05/11 02:17:51;;;;;;;6.25;1.75;;;;;;;18.42;39.52;99588.09;4484506;31;33912;-65
2023/05/11 02:20:19;;;;;;;1.92;1.48;;;;;;;18.41;39.45;99588.28;4490971;31;35086;-63
2023/05/11 02:22:48;;;;;;;2.95;1.90;;;;;;;18.36;39.70;99578.81;4490737;31;33401;-66
2023/05/11 02:25:16;;;;;;;3.90;1.33;;;;;;;18.38;39.80;99579.47;4488850;31;33692;-64
2023/05/11 02:27:43;;;;;;;17.70;1.62;;;;;;;18.39;39.95;99583.88;4485486;31;33044;-64
2023/05/11 02:30:12;;;;;;;2.37;1.55;;;;;;;18.30;40.30;99584.06;4485974;31;33801;-65
2023/05/11 02:32:50;;;;;;;5.85;2.33;;;;;;;18.28;40.29;99581.50;4488317;31;33287;-63
2023/05/11 02:35:24;;;;;;;3.03;1.60;;;;;;;18.29;40.15;99576.91;4496084;31;33800;-63
2023/05/11 02:37:55;;;;;;;2.28;2.08;;;;;;;18.24;39.97;99573.87;4492672;31;33996;-66
2023/05/11 02:40:28;;;;;;;1.90;1.40;;;;;;;18.24;39.99;99574.72;4488783;31;34355;-64
2023/05/11 02:43:01;;;;;;;4.18;2.50;;;;;;;18.29;39.80;99582.34;4493959;31;31987;-65
2023/05/11 02:45:31;;;;;;;2.70;1.40;;;;;;;18.22;39.92;99573.19;4491693;31;34162;-65
2023/05/11 02:48:16;;;;;;;7.15;2.15;;;;;;;18.21;40.00;99569.66;4497603;31;32561;-65
2023/05/11 02:50:45;;;;;;;3.45;1.80;;;;;;;17.81;41.42;99568.53;4494105;31;33830;-64
2023/05/11 02:53:16;;;;;;;7.62;1.62;;;;;;;17.98;40.96;99564.03;4501199;31;34436;-64
2023/05/11 02:55:44;;;;;;;3.12;1.87;;;;;;;18.04;40.59;99562.50;4499301;31;34835;-64
2023/05/11 02:58:12;;;;;;;3.25;1.87;;;;;;;18.09;40.27;99562.84;4498168;31;35308;-64
2023/05/11 03:00:41;;;;;;;3.37;1.90;;;;;;;18.06;40.35;99566.75;4496640;31;35011;-64
2023/05/11 03:03:08;;;;;;;2.37;1.67;;;;;;;18.04;40.33;99566.09;4492697;31;34506;-64
2023/05/11 03:05:36;;;;;;;2.37;1.77;;;;;;;17.95;40.49;99563.53;4494359;31;33825;-66
2023/05/11 03:08:04;;;;;;;2.50;1.50;;;;;;;17.96;40.43;99568.75;4498227;31;33935;-65
2023/05/11 03:10:33;;;;;;;6.35;2.25;;;;;;;17.92;40.67;99570.12;4495957;31;33636;-63
2023/05/11 03:13:02;;;;;;;6.82;1.65;;;;;;;17.89;40.67;99576.69;4493507;31;33426;-64
2023/05/11 03:15:30;;;;;;;2.40;1.58;;;;;;;17.80;40.82;99571.44;4500641;31;33882;-64
2023/05/11 03:17:59;;;;;;;5.85;2.15;;;;;;;17.69;40.98;99573.41;4499136;31;32628;-65
2023/05/11 03:20:27;;;;;;;2.72;1.52;;;;;;;17.81;40.60;99567.69;4485397;31;33164;-63
2023/05/11 03:22:54;;;;;;;2.70;1.60;;;;;;;17.78;40.26;99574.28;4487764;31;33302;-66
2023/05/11 03:25:23;;;;;;;3.08;1.62;;;;;;;17.59;40.89;99574.53;4497326;31;34446;-64
2023/05/11 03:27:52;;;;;;;4.68;1.50;;;;;;;17.70;40.57;99572.38;4493998;31;34048;-65
2023/05/11 03:30:20;;;;;;;1.45;1.10;;;;;;;17.69;40.71;99581.53;4484381;31;33576;-66
2023/05/11 03:32:49;;;;;;;2.65;1.55;;;;;;;17.69;40.87;99577.97;4489907;31;31885;-65
2023/05/11 03:35:17;;;;;;;2.15;1.40;;;;;;;17.71;40.53;99575.94;4485981;31;33886;-65
2023/05/11 03:37:46;;;;;;;6.37;1.62;;;;;;;17.79;40.48;99580.59;4483789;31;33872;-64
2023/05/11 03:40:15;;;;;;;3.03;1.23;;;;;;;17.78;40.55;99571.59;4493690;31;33848;-63
2023/05/11 03:42:44;;;;;;;3.42;1.85;;;;;;;17.75;40.82;99580.00;4488028;31;31814;-65
2023/05/11 03:45:13;;;;;;;2.08;1.37;;;;;;;17.60;40.76;99584.38;4493847;31;33970;-64
2023/05/11 03:47:42;;;;;;;1.77;0.90;;;;;;;17.64;40.95;99577.62;4486570;31;34100;-65
2023/05/11 03:50:10;;;;;;;3.28;1.65;;;;;;;17.70;41.06;99582.37;4493488;31;32707;-63
2023/05/11 03:52:37;;;;;;;2.35;1.73;;;;;;;17.66;41.19;99576.44;4495648;31;33623;-65
2023/05/11 03:55:06;;;;;;;2.90;1.98;;;;;;;17.45;41.91;99582.28;4498720;31;32376;-65
2023/05/11 03:57:33;;;;;;;4.47;2.45;;;;;;;17.51;41.68;99578.06;4498613;31;33692;-63
2023/05/11 04:00:01;;;;;;;2.65;1.60;;;;;;;17.62;41.36;99568.81;4491277;31;34003;-64
2023/05/11 04:02:33;;;;;;;1.70;1.30;;;;;;;17.60;41.42;99579.81;4498457;31;33226;-64
2023/05/11 04:05:07;;;;;;;2.62;1.85;;;;;;;17.57;42.00;99580.13;4490751;31;32944;-63
2023/05/11 04:07:36;;;;;;;4.90;1.90;;;;;;;17.64;42.32;99586.56;4496401;31;33980;-63
2023/05/11 04:10:05;;;;;;;2.67;1.50;;;;;;;17.64;42.24;99583.03;4500464;31;33583;-63
2023/05/11 04:12:32;;;;;;;5.87;2.40;;;;;;;17.65;42.53;99585.56;4495972;31;33342;-63
2023/05/11 04:14:59;;;;;;;3.80;1.67;;;;;;;17.42;42.87;99588.00;4496072;31;34737;-64
2023/05/11 04:17:27;;;;;;;3.30;1.67;;;;;;;17.60;42.05;99585.22;4488151;31;33926;-63
2023/05/11 04:19:55;;;;;;;2.22;1.37;;;;;;;17.87;41.35;99589.53;4493746;31;33554;-64
2023/05/11 04:22:22;;;;;;;3.95;1.87;;;;;;;17.80;41.62;99584.97;4495733;31;33274;-66
2023/05/11 04:24:50;;;;;;;2.17;1.37;;;;;;;18.00;40.81;99593.62;4498673;31;35308;-64
2023/05/11 04:27:17;;;;;;;1.12;0.95;;;;;;;18.03;40.46;99596.87;4492181;31;35350;-65
2023/05/11 04:29:45;;;;;;;5.03;2.05;;;;;;;17.83;40.80;99598.19;4489663;31;34647;-64
2023/05/11 04:32:14;;;;;;;5.20;1.90;;;;;;;17.71;40.53;99594.88;4484108;31;33171;-64
2023/05/11 04:34:42;;;;;;;2.55;1.45;;;;;;;17.67;40.74;99601.66;4490817;31;33874;-64
2023/05/11 04:37:10;;;;;;;3.37;1.65;;;;;;;17.52;40.89;99596.00;4497094;31;35311;-63
2023/05/11 04:39:38;;;;;;;3.80;1.60;;;;;;;17.55;40.80;99600.25;4495347;31;35260;-63
2023/05/11 04:42:05;;;;;;;2.87;1.45;;;;;;;17.56;41.02;99601.91;4492215;31;33653;-63
2023/05/11 04:44:33;;;;;;;5.85;1.85;;;;;;;17.33;41.01;99605.19;4489819;31;32544;-65
2023/05/11 04:47:00;;;;;;;3.42;1.62;;;;;;;17.16;41.29;99608.84;4488891;31;33947;-63
2023/05/11 04:49:28;;;;;;;4.00;1.87;;;;;;;17.08;41.26;99606.94;4497489;31;35033;-62
2023/05/11 04:51:56;;;;;;;3.97;2.25;;;;;;;16.70;41.86;99606.31;4494199;31;31074;-63
2023/05/11 04:54:24;;;;;;;2.80;1.65;;;;;;;16.67;41.93;99608.50;4492064;31;32217;-63
2023/05/11 04:56:51;;;;;;;1.85;1.27;;;;;;;16.72;42.31;99616.97;4494964;31;33792;-62
2023/05/11 04:59:18;;;;;;;3.15;1.42;;;;;;;16.51;42.57;99609.19;4493483;31;33582;-64
2023/05/11 05:01:46;;;;;;;2.25;1.37;;;;;;;16.37;42.79;99617.84;4495569;31;34079;-65
2023/05/11 05:04:15;;;;;;;2.95;2.00;;;;;;;16.33;42.85;99622.72;4491736;31;33552;-63
2023/05/11 05:06:43;;;;;;;2.00;1.33;;;;;;;16.52;42.29;99619.00;4485132;31;33980;-63
2023/05/11 05:09:10;;;;;;;4.68;1.58;;;;;;;16.50;42.93;99621.88;4492909;31;33637;-64
2023/05/11 05:11:38;;;;;;;3.50;2.25;;;;;;;16.73;42.69;99618.69;4488409;31;33054;-63
2023/05/11 05:14:05;;;;;;;2.17;1.30;;;;;;;16.60;43.08;99620.94;4492864;31;34993;-64
2023/05/11 05:16:33;;;;;;;2.20;1.65;;;;;;;16.75;42.58;99620.22;4493508;31;34010;-64
2023/05/11 05:19:01;;;;;;;2.00;1.52;;;;;;;16.59;42.86;99621.91;4488922;31;32489;-66
2023/05/11 05:21:31;;;;;;;4.37;1.90;;;;;;;16.72;42.78;99623.22;4488007;31;33290;-63
2023/05/11 05:23:58;;;;;;;4.30;1.83;;;;;;;16.64;43.22;99627.72;4495469;31;33513;-65
2023/05/11 05:26:26;;;;;;;2.45;1.45;;;;;;;16.96;41.72;99627.16;4498208;31;35282;-65
2023/05/11 05:28:54;;;;;;;3.90;2.00;;;;;;;16.80;42.25;99621.63;4497704;31;33846;-65
2023/05/11 05:31:23;;;;;;;2.60;1.90;;;;;;;17.12;41.81;99627.25;4493944;31;34355;-66
2023/05/11 05:33:50;;;;;;;4.50;1.87;;;;;;;16.60;41.66;99624.47;4496014;31;34386;-65
2023/05/11 05:36:18;;;;;;;8.18;2.50;;;;;;;16.53;42.07;99629.66;4492114;31;33111;-65
2023/05/11 05:38:47;;;;;;;1.92;1.58;;;;;;;16.55;42.29;99632.19;4483731;32;34825;-64
2023/05/11 05:41:15;;;;;;;4.47;2.20;;;;;;;16.54;41.48;99633.22;4483616;31;33304;-65
2023/05/11 05:43:43;;;;;;;2.55;1.52;;;;;;;16.65;41.92;99629.41;4491366;31;34662;-65
2023/05/11 05:46:11;;;;;;;1.95;1.08;;;;;;;16.51;41.76;99637.06;4490057;31;33838;-64
2023/05/11 05:48:38;;;;;;;2.72;2.05;;;;;;;16.78;41.58;99635.28;4492012;31;34784;-64
2023/05/11 05:51:06;;;;;;;2.47;1.40;;;;;;;16.71;40.36;99642.28;4494238;31;33328;-64
2023/05/11 05:53:34;;;;;;;4.15;2.15;;;;;;;16.34;41.25;99642.47;4491150;31;33912;-65
2023/05/11 05:56:01;;;;;;;2.55;1.48;;;;;;;16.45;41.24;99644.94;4497860;31;32853;-64
2023/05/11 05:58:29;;;;;;;3.83;1.92;;;;;;;16.90;39.99;99641.28;4494426;31;33883;-66
2023/05/11 06:00:57;;;;;;;5.00;1.73;;;;;;;16.91;39.64;99634.87;4495114;31;33402;-64
2023/05/11 06:03:24;;;;;;;2.58;1.55;;;;;;;16.48;40.04;99636.53;4483840;32;33781;-66
2023/05/11 06:05:56;;;;;;;2.12;1.40;;;;;;;16.53;40.18;99640.47;4495415;31;34896;-63
2023/05/11 06:08:23;;;;;;;2.45;1.20;;;;;;;16.55;40.46;99634.91;4499415;31;33437;-64
2023/05/11 06:10:51;;;;;;;1.95;1.37;;;;;;;16.62;39.97;99640.53;4494558;31;33773;-64
2023/05/11 06:13:18;;;;;;;3.15;1.80;;;;;;;16.55;40.29;99637.59;4497822;31;33742;-64
2023/05/11 06:15:46;;;;;;;3.62;1.23;;;;;;;15.93;42.14;99634.81;4495098;31;32501;-63
2023/05/11 06:18:14;;;;;;;2.40;1.02;;;;;;;16.25;42.17;99645.09;4486537;31;34102;-64
2023/05/11 06:20:42;;;;;;;8.82;2.45;;;;;;;16.77;40.41;99639.84;4485356;31;33638;-63
2023/05/11 06:23:10;;;;;;;3.45;1.45;;;;;;;16.96;39.68;99637.97;4486101;32;33872;-65
2023/05/11 06:25:38;;;;;;;6.60;2.22;;;;;;;16.98;39.92;99638.62;4497961;31;35020;-63
2023/05/11 06:28:06;;;;;;;3.95;1.65;;;;;;;16.33;41.38;99640.78;4501316;31;34057;-64
2023/05/11 06:30:34;;;;;;;2.35;1.95;;;;;;;16.19;41.65;99642.16;4490816;31;33354;-64
2023/05/11 06:33:05;;;;;;;4.35;1.62;;;;;;;16.40;41.04;99644.53;4494926;31;33188;-64
2023/05/11 06:35:35;;;;;;;6.32;1.77;;;;;;;16.69;40.94;99641.59;4492592;31;33315;-65
2023/05/11 06:38:03;;;;;;;2.90;1.62;;;;;;;16.91;40.66;99640.28;4493952;31;33875;-64
2023/05/11 06:40:32;;;;;;;1.67;1.10;;;;;;;16.87;40.55;99642.44;4491039;31;33147;-63
2023/05/11 06:42:59;;;;;;;3.55;1.35;;;;;;;16.97;40.59;99632.38;4485395;31;35095;-64
2023/05/11 06:45:36;;;;;;;2.97;1.52;;;;;;;16.84;41.17;99634.66;4496645;31;34077;-65
2023/05/11 06:48:04;;;;;;;2.12;1.27;;;;;;;16.64;41.23;99642.06;4489289;31;34702;-63
2023/05/11 06:50:31;;;;;;;3.37;1.83;;;;;;;17.07;40.23;99644.94;4498651;31;33243;-65
2023/05/11 06:52:59;;;;;;;2.20;1.30;;;;;;;17.03;40.78;99630.91;4494895;31;33923;-64
2023/05/11 06:55:27;;;;;;;2.08;1.42;;;;;;;17.57;39.47;99638.81;4487637;31;34093;-65
2023/05/11 06:57:55;;;;;;;1.92;1.05;;;;;;;17.56;39.66;99634.41;4484639;31;33737;-64
2023/05/11 07:00:23;;;;;;;3.60;1.92;;;;;;;17.38;39.73;99627.22;4485189;31;33229;-65
2023/05/11 07:02:50;;;;;;;2.87;1.70;;;;;;;17.78;39.82;99624.88;4489983;31;35019;-64
2023/05/11 07:05:18;;;;;;;4.03;1.75;;;;;;;17.17;41.01;99630.34;4492089;31;34036;-66
2023/05/11 07:07:45;;;;;;;2.58;1.73;;;;;;;17.51;41.20;99634.06;4493372;31;34492;-65
2023/05/11 07:10:13;;;;;;;2.35;1.33;;;;;;;17.55;39.71;99621.88;4500269;31;33408;-64
2023/05/11 07:12:41;;;;;;;4.60;1.92;;;;;;;17.73;40.17;99619.94;4498780;31;33460;-66
2023/05/11 07:15:08;;;;;;;1.92;1.58;;;;;;;17.79;39.66;99632.00;4501331;31;34890;-65
2023/05/11 07:17:36;;;;;;;4.57;2.03;;;;;;;17.72;39.04;99622.78;4497985;31;33695;-64
2023/05/11 07:20:04;;;;;;;3.70;1.73;;;;;;;17.41;39.93;99615.25;4496103;31;33456;-65
2023/05/11 07:22:32;;;;;;;2.08;1.30;;;;;;;18.16;38.31;99620.75;4493620;31;33925;-65
2023/05/11 07:24:59;;;;;;;3.22;1.85;;;;;;;17.96;38.79;99616.66;4491132;31;33253;-65
2023/05/11 07:27:27;;;;;;;2.03;1.17;;;;;;;18.01;38.84;99617.00;4496431;31;32466;-64
2023/05/11 07:29:55;;;;;;;1.30;0.95;;;;;;;18.25;37.43;99614.34;4493386;31;34469;-63
2023/05/11 07:32:22;;;;;;;2.70;1.42;;;;;;;17.98;37.59;99617.31;4491420;31;33689;-65
2023/05/11 07:34:50;;;;;;;1.73;1.12;;;;;;;18.25;37.61;99610.78;4496012;31;35229;-63
2023/05/11 07:37:17;;;;;;;3.62;1.23;;;;;;;17.72;38.64;99620.09;4484477;31;33532;-65
2023/05/11 07:39:45;;;;;;;3.33;1.48;;;;;;;18.01;38.25;99614.28;4500336;31;34551;-64
2023/05/11 07:42:13;;;;;;;1.75;1.37;;;;;;;17.91;38.21;99607.19;4497086;31;35078;-64
2023/05/11 07:44:40;;;;;;;2.95;1.48;;;;;;;18.29;37.51;99618.41;4488172;31;35065;-64
2023/05/11 07:47:08;;;;;;;3.67;1.65;;;;;;;18.49;37.15;99607.25;4485460;31;33748;-65
2023/05/11 07:49:36;;;;;;;2.72;1.80;;;;;;;18.71;37.21;99613.84;4495631;31;33133;-65
2023/05/11 07:52:10;;;;;;;1.70;1.25;;;;;;;17.83;37.76;99612.56;4491333;31;34998;-64
2023/05/11 07:54:38;;;;;;;3.28;1.62;;;;;;;18.15;36.62;99613.66;4488064;31;33626;-64
2023/05/11 07:57:06;;;;;;;5.20;2.00;;;;;;;18.35;37.24;99612.31;4495797;31;32888;-63
2023/05/11 07:59:34;;;;;;;2.50;1.85;;;;;;;18.40;36.96;99617.25;4499028;31;34603;-65
2023/05/11 08:02:04;;;;;;;4.18;1.60;;;;;;;18.76;35.83;99611.53;4493586;31;34934;-64
2023/05/11 08:04:32;;;;;;;4.95;1.92;;;;;;;18.49;37.39;99604.53;4497551;31;32628;-65
2023/05/11 08:06:59;;;;;;;3.35;1.58;;;;;;;19.09;35.94;99606.88;4491222;31;32573;-66
2023/05/11 08:09:28;;;;;;;5.15;1.45;;;;;;;19.27;35.15;99606.69;4493118;31;33405;-63
2023/05/11 08:11:56;;;;;;;2.72;1.12;;;;;;;19.15;36.08;99608.06;4492048;31;32511;-64
2023/05/11 08:14:24;;;;;;;3.33;1.67;;;;;;;18.98;36.43;99616.25;4488796;31;34042;-65
2023/05/11 08:16:52;;;;;;;1.27;1.02;;;;;;;18.87;34.68;99607.59;4497352;31;34943;-64
2023/05/11 08:19:19;;;;;;;2.50;1.58;;;;;;;19.09;35.13;99596.87;4492706;31;31656;-66
2023/05/11 08:21:47;;;;;;;2.08;1.35;;;;;;;19.05;35.21;99597.41;4497866;31;34192;-64
2023/05/11 08:24:14;;;;;;;3.85;1.45;;;;;;;19.31;35.43;99600.72;4499044;31;35055;-66
2023/05/11 08:26:42;;;;;;;3.72;1.83;;;;;;;19.29;35.64;99596.47;4491425;31;34654;-64
2023/05/11 08:29:11;;;;;;;4.07;1.95;;;;;;;19.65;34.14;99596.06;4487320;31;33101;-65
2023/05/11 08:31:39;;;;;;;2.75;1.75;;;;;;;19.70;34.81;99593.62;4484159;31;33993;-65
2023/05/11 08:34:10;;;;;;;3.95;1.55;;;;;;;19.87;34.57;99594.41;4494355;31;33835;-65
2023/05/11 08:36:40;;;;;;;2.08;1.20;;;;;;;19.73;34.12;99586.00;4491402;31;34761;-66
2023/05/11 08:39:08;;;;;;;2.47;1.40;;;;;;;19.67;34.40;99583.13;4492888;31;33222;-64
2023/05/11 08:41:35;;;;;;;4.20;1.90;;;;;;;19.60;35.15;99576.69;4492493;31;32966;-65
2023/05/11 08:44:03;;;;;;;4.37;1.40;;;;;;;19.46;35.31;99576.41;4484905;31;33751;-64
2023/05/11 08:46:34;;;;;;;2.85;1.33;;;;;;;19.88;33.75;99574.37;4494405;31;32814;-67
2023/05/11 08:49:02;;;;;;;2.62;1.55;;;;;;;19.66;34.17;99574.16;4497789;31;32509;-65
2023/05/11 08:51:29;;;;;;;3.40;1.50;;;;;;;19.40;34.08;99571.69;4490745;31;33621;-65
2023/05/11 08:53:58;;;;;;;13.00;2.47;;;;;;;19.52;33.94;99578.44;4487779;31;33944;-67
2023/05/11 08:56:28;;;;;;;6.12;1.58;;;;;;;19.76;33.99;99568.50;4485228;31;34805;-64
2023/05/11 08:58:56;;;;;;;4.85;1.73;;;;;;;19.93;33.28;99569.25;4492961;31;33174;-64
2023/05/11 09:01:27;;;;;;;2.72;1.48;;;;;;;19.83;33.40;99569.47;4493250;31;34862;-64
2023/05/11 09:03:55;;;;;;;3.33;1.50;;;;;;;19.65;32.94;99558.06;4497613;31;33562;-65
2023/05/11 09:06:24;;;;;;;11.25;1.83;;;;;;;20.23;33.51;99556.66;4489197;31;34854;-66
2023/05/11 09:08:52;;;;;;;3.90;1.05;;;;;;;20.15;32.46;99554.81;4488774;31;34616;-64
2023/05/11 09:11:21;;;;;;;1.98;1.42;;;;;;;20.61;32.16;99557.56;4495345;31;33590;-63
2023/05/11 09:13:50;;;;;;;6.97;1.77;;;;;;;20.40;31.60;99570.97;4496808;31;34375;-65
2023/05/11 09:16:17;;;;;;;2.33;1.02;;;;;;;20.55;32.13;99552.84;4484804;31;33226;-66
2023/05/11 09:19:03;;;;;;;;;;;;;;;20.33;32.58;99556.41;4484237;31;32983;-65
2023/05/11 09:21:31;;;;;;;2.83;1.55;;;;;;;20.09;32.48;99558.25;4497424;31;34717;-64
2023/05/11 09:23:59;;;;;;;4.20;1.95;;;;;;;20.18;33.71;99551.75;4491556;31;36002;-64
2023/05/11 09:26:28;;;;;;;2.17;1.48;;;;;;;20.35;33.16;99544.34;4487703;31;35024;-65
2023/05/11 09:28:57;;;;;;;2.72;1.55;;;;;;;20.69;30.56;99543.03;4489954;31;33203;-64
2023/05/11 09:31:42;;;;;;;1.87;1.45;;;;;;;20.74;30.40;99537.91;4493783;31;31505;-65
2023/05/11 09:34:21;;;;;;;2.87;1.70;;;;;;;20.56;31.17;99543.66;4485688;31;34108;-65
2023/05/11 09:36:51;;;;;;;3.85;1.33;;;;;;;20.65;31.47;99536.28;4493227;31;35115;-65
2023/05/11 09:39:35;;;;;;;2.12;1.20;;;;;;;20.61;31.40;99538.53;4496110;31;35600;-65
2023/05/11 09:42:22;;;;;;;3.55;1.45;;;;;;;20.47;32.22;99533.84;4495999;31;33716;-64
2023/05/11 09:44:51;;;;;;;3.22;1.35;;;;;;;21.06;31.62;99538.53;4499026;31;34043;-65
2023/05/11 09:47:21;;;;;;;5.03;1.45;;;;;;;20.97;29.67;99535.09;4492409;31;33651;-66
2023/05/11 09:49:49;;;;;;;5.80;1.20;;;;;;;20.82;30.31;99524.19;4491459;31;32511;-65
2023/05/11 09:52:17;;;;;;;12.80;1.48;;;;;;;20.86;27.89;99530.09;4499215;31;34129;-64
2023/05/11 09:54:46;;;;;;;3.67;1.08;;;;;;;20.58;27.69;99535.34;4498769;31;33900;-67
2023/05/11 09:57:25;;;;;;;4.80;1.55;;;;;;;20.74;28.46;99535.16;4497247;31;33646;-64
2023/05/11 09:59:54;;;;;;;5.18;1.52;;;;;;;20.78;28.35;99535.66;4497719;31;33087;-64
2023/05/11 10:02:26;;;;;;;4.37;1.62;;;;;;;20.91;27.77;99538.56;4493866;31;33626;-64
2023/05/11 10:04:56;;;;;;;1.87;0.90;;;;;;;20.64;28.96;99518.25;4496478;31;34155;-65
2023/05/11 10:07:34;;;;;;;1.95;0.98;;;;;;;21.33;28.41;99518.00;4487947;31;33255;-63
2023/05/11 10:10:03;;;;;;;3.17;1.20;;;;;;;21.53;27.25;99505.50;4494239;31;33202;-63
2023/05/11 10:12:32;;;;;;;2.53;1.17;;;;;;;21.44;28.18;99513.97;4492964;31;34615;-63
2023/05/11 10:15:02;;;;;;;1.87;1.23;;;;;;;21.26;27.29;99507.03;4494956;31;34869;-66
2023/05/11 10:17:32;;;;;;;4.65;1.30;;;;;;;21.69;27.48;99507.16;4492400;31;34690;-64
2023/05/11 10:20:00;;;;;;;4.22;2.22;;;;;;;21.69;26.17;99509.03;4496018;31;33387;-64
2023/05/11 10:22:29;;;;;;;3.15;1.52;;;;;;;21.81;26.20;99497.44;4493762;31;32608;-67
2023/05/11 10:24:58;;;;;;;2.35;1.62;;;;;;;21.99;26.45;99493.41;4491315;31;32720;-66
2023/05/11 10:27:26;;;;;;;1.87;1.00;;;;;;;21.81;27.46;99493.88;4491432;31;35038;-67
2023/05/11 10:29:53;;;;;;;3.50;1.30;;;;;;;21.63;28.00;99497.03;4497641;31;34421;-64
2023/05/11 10:32:21;;;;;;;5.25;1.02;;;;;;;22.01;26.56;99491.34;4491617;31;33954;-63
2023/05/11 10:34:49;;;;;;;2.72;1.35;;;;;;;21.43;27.35;99504.13;4492498;31;34931;-65
2023/05/11 10:37:17;;;;;;;6.72;1.55;;;;;;;21.46;27.10;99499.13;4492762;31;34644;-64
2023/05/11 10:39:45;;;;;;;2.90;1.12;;;;;;;21.33;27.50;99502.50;4485489;31;32997;-64
2023/05/11 10:42:28;;;;;;;2.30;1.42;;;;;;;21.36;27.50;99498.59;4494631;31;34612;-67
2023/05/11 10:45:02;;;;;;;3.47;1.27;;;;;;;21.16;28.21;99498.31;4492579;31;33820;-62
2023/05/11 10:47:57;;;;;;;2.78;1.23;;;;;;;21.22;28.57;99497.56;4494681;31;33617;-63
2023/05/11 10:50:43;;;;;;;1.73;1.27;;;;;;;21.18;29.02;99486.19;4488946;31;33248;-62
2023/05/11 10:53:23;;;;;;;3.37;1.67;;;;;;;21.15;29.29;99491.16;4493862;31;33567;-64
2023/05/11 10:56:15;;;;;;;2.60;1.17;;;;;;;21.30;29.65;99478.38;4491879;31;33637;-64
2023/05/11 10:58:54;;;;;;;2.28;1.42;;;;;;;21.62;28.41;99485.28;4498874;31;32323;-62
2023/05/11 11:01:25;;;;;;;2.35;1.35;;;;;;;22.14;27.89;99485.19;4487796;31;33513;-63
2023/05/11 11:04:04;;;;;;;2.62;1.35;;;;;;;21.65;27.66;99486.78;4486774;31;33664;-65
2023/05/11 11:06:36;;;;;;;2.28;1.40;;;;;;;21.52;28.61;99492.09;4496312;31;33876;-62
2023/05/11 11:09:14;;;;;;;2.22;1.65;;;;;;;21.09;29.27;99476.47;4492213;31;33895;-64
2023/05/11 11:11:45;;;;;;;6.07;1.60;;;;;;;21.70;29.15;99481.63;4485679;31;34420;-63
2023/05/11 11:14:13;;;;;;;3.97;1.80;;;;;;;21.17;28.64;99468.19;4485104;31;35008;-64
2023/05/11 11:17:13;;;;;;;4.47;1.17;;;;;;;21.51;28.53;99474.91;4487025;31;35227;-64
2023/05/11 11:19:42;;;;;;;1.95;1.25;;;;;;;21.70;28.00;99473.44;4489098;31;32841;-63
2023/05/11 11:22:34;;;;;;;3.20;1.23;;;;;;;21.11;27.66;99476.25;4489945;31;33820;-63
2023/05/11 11:25:04;;;;;;;2.12;1.20;;;;;;;20.63;28.25;99473.06;4494003;31;33808;-63
2023/05/11 11:27:44;;;;;;;5.50;1.35;;;;;;;20.58;28.47;99462.75;4493749;31;35839;-62
2023/05/11 11:30:27;;;;;;;1.83;1.00;;;;;;;20.55;28.41;99471.28;4483052;31;33865;-63
2023/05/11 11:33:15;;;;;;;3.37;1.67;;;;;;;20.88;27.46;99471.75;4493695;31;33053;-63
2023/05/11 11:35:46;;;;;;;1.45;1.02;;;;;;;20.87;27.49;99461.94;4482303;31;32703;-63
2023/05/11 11:38:16;;;;;;;2.85;1.30;;;;;;;21.13;27.89;99463.31;4492343;31;34307;-62
2023/05/11 11:40:45;;;;;;;2.92;1.20;;;;;;;21.38;27.65;99463.88;4484006;31;33955;-61
2023/05/11 11:43:23;;;;;;;2.97;1.87;;;;;;;21.29;27.60;99465.81;4485866;31;34098;-63
2023/05/11 11:45:57;;;;;;;3.20;1.45;;;;;;;21.42;27.31;99458.88;4492544;31;35128;-64
2023/05/11 11:48:35;;;;;;;5.62;1.20;;;;;;;21.38;27.91;99463.88;4486967;31;33674;-64